createdAt,value
2023-04-09T00:00:17.728Z,45.82
2023-04-09T00:02:45.190Z,45.75
2023-04-09T00:05:12.501Z,45.70
2023-04-09T00:07:39.902Z,45.88
2023-04-09T00:10:11.698Z,45.70
2023-04-09T00:12:39.429Z,45.81
2023-04-09T00:15:09.617Z,45.71
2023-04-09T00:17:38.588Z,45.75
2023-04-09T00:20:07.001Z,45.94
2023-04-09T00:22:34.345Z,46.14
2023-04-09T00:25:01.467Z,46.13
2023-04-09T00:27:28.546Z,46.42
2023-04-09T00:29:55.648Z,46.27
2023-04-09T00:32:22.835Z,46.40
2023-04-09T00:34:50.007Z,46.48
2023-04-09T00:37:17.124Z,46.13
2023-04-09T00:39:44.341Z,46.42
2023-04-09T00:42:11.564Z,46.47
2023-04-09T00:44:38.759Z,46.57
2023-04-09T00:47:05.971Z,46.46
2023-04-09T00:49:34.104Z,46.49
2023-04-09T00:52:01.736Z,46.05
2023-04-09T00:54:28.895Z,46.11
2023-04-09T00:56:57.345Z,46.17
2023-04-09T00:59:25.751Z,46.42
2023-04-09T01:01:53.030Z,46.57
2023-04-09T01:04:21.312Z,46.23
2023-04-09T01:07:20.709Z,46.74
2023-04-09T01:10:21.647Z,46.57
2023-04-09T01:13:03.870Z,46.42
2023-04-09T01:15:39.687Z,46.70
2023-04-09T01:18:41.771Z,46.75
2023-04-09T01:21:23.459Z,46.75
2023-04-09T01:24:27.311Z,47.06
2023-04-09T01:27:03.828Z,47.19
2023-04-09T01:29:45.178Z,46.97
2023-04-09T01:32:16.614Z,46.84
2023-04-09T01:34:47.288Z,46.84
2023-04-09T01:37:17.112Z,47.46
2023-04-09T01:39:46.139Z,47.00
2023-04-09T01:42:16.111Z,47.39
2023-04-09T01:44:46.822Z,47.18
2023-04-09T01:47:14.426Z,47.61
2023-04-09T01:49:44.648Z,47.21
2023-04-09T01:52:12.330Z,47.15
2023-04-09T01:54:39.515Z,46.67
2023-04-09T01:57:06.726Z,46.40
2023-04-09T01:59:33.892Z,46.33
2023-04-09T02:02:12.504Z,46.98
2023-04-09T02:04:49.366Z,47.23
2023-04-09T02:07:28.979Z,47.14
2023-04-09T02:09:57.732Z,47.37
2023-04-09T02:12:26.313Z,46.96
2023-04-09T02:14:55.001Z,47.41
2023-04-09T02:17:22.244Z,47.25
2023-04-09T02:19:49.428Z,47.04
2023-04-09T02:22:17.351Z,47.00
2023-04-09T02:24:46.540Z,46.95
2023-04-09T02:27:13.964Z,47.28
2023-04-09T02:29:41.502Z,47.26
2023-04-09T02:32:09.272Z,47.75
2023-04-09T02:34:36.421Z,47.38
2023-04-09T02:37:03.540Z,47.28
2023-04-09T02:39:30.739Z,47.29
2023-04-09T02:41:57.988Z,46.95
2023-04-09T02:44:25.350Z,46.89
2023-04-09T02:46:52.499Z,46.99
2023-04-09T02:49:19.689Z,47.33
2023-04-09T02:51:46.799Z,47.35
2023-04-09T02:54:14.002Z,47.56
2023-04-09T02:56:41.457Z,47.18
2023-04-09T02:59:09.506Z,47.10
2023-04-09T03:01:36.648Z,46.97
2023-04-09T03:04:04.197Z,47.43
2023-04-09T03:06:31.561Z,47.30
2023-04-09T03:08:58.756Z,47.28
2023-04-09T03:11:26.021Z,47.17
2023-04-09T03:13:53.162Z,47.57
2023-04-09T03:16:20.397Z,47.47
2023-04-09T03:18:47.679Z,47.39
2023-04-09T03:21:15.100Z,47.36
2023-04-09T03:23:42.309Z,47.74
2023-04-09T03:26:09.533Z,47.34
2023-04-09T03:28:36.918Z,47.03
2023-04-09T03:31:04.080Z,47.45
2023-04-09T03:33:31.396Z,47.73
2023-04-09T03:35:58.732Z,47.33
2023-04-09T03:38:25.945Z,47.52
2023-04-09T03:40:53.026Z,47.03
2023-04-09T03:43:20.324Z,47.31
2023-04-09T03:45:47.657Z,47.05
2023-04-09T03:48:14.832Z,46.99
2023-04-09T03:50:42.574Z,47.08
2023-04-09T03:53:09.766Z,47.60
2023-04-09T03:55:38.314Z,47.56
2023-04-09T03:58:05.442Z,47.24
2023-04-09T04:00:32.811Z,46.97
2023-04-09T04:03:00.188Z,47.15
2023-04-09T04:05:27.500Z,47.16
2023-04-09T04:07:54.745Z,47.28
2023-04-09T04:10:21.955Z,47.52
2023-04-09T04:12:49.082Z,47.37
2023-04-09T04:15:16.376Z,47.36
2023-04-09T04:17:45.049Z,47.23
2023-04-09T04:20:12.635Z,47.44
2023-04-09T04:22:40.141Z,47.12
2023-04-09T04:25:07.588Z,46.88
2023-04-09T04:27:34.715Z,47.26
2023-04-09T04:30:01.923Z,47.22
2023-04-09T04:32:29.475Z,47.62
2023-04-09T04:34:56.722Z,47.37
2023-04-09T04:37:24.109Z,47.43
2023-04-09T04:39:51.301Z,47.60
2023-04-09T04:42:18.625Z,47.80
2023-04-09T04:44:45.760Z,48.20
2023-04-09T04:47:12.953Z,48.21
2023-04-09T04:49:40.047Z,47.96
2023-04-09T04:52:07.278Z,47.90
2023-04-09T04:54:34.607Z,47.73
2023-04-09T04:57:01.878Z,47.53
2023-04-09T04:59:29.612Z,47.41
2023-04-09T05:01:56.907Z,47.21
2023-04-09T05:04:24.189Z,48.19
2023-04-09T05:06:51.415Z,48.34
2023-04-09T05:09:20.502Z,47.76
2023-04-09T05:11:49.205Z,47.60
2023-04-09T05:14:16.639Z,47.56
2023-04-09T05:16:46.289Z,47.76
2023-04-09T05:19:13.834Z,47.84
2023-04-09T05:21:41.062Z,47.53
2023-04-09T05:24:08.154Z,47.83
2023-04-09T05:26:35.304Z,47.91
2023-04-09T05:29:02.466Z,47.77
2023-04-09T05:31:29.661Z,47.61
2023-04-09T05:33:56.913Z,47.63
2023-04-09T05:36:24.102Z,47.65
2023-04-09T05:38:51.429Z,47.89
2023-04-09T05:41:18.851Z,48.58
2023-04-09T05:43:45.955Z,48.61
2023-04-09T05:46:13.232Z,48.42
2023-04-09T05:48:40.435Z,48.52
2023-04-09T05:51:07.613Z,48.55
2023-04-09T05:53:34.821Z,48.39
2023-04-09T05:56:02.086Z,48.51
2023-04-09T05:58:29.556Z,48.46
2023-04-09T06:00:56.763Z,48.79
2023-04-09T06:03:24.020Z,48.88
2023-04-09T06:05:51.228Z,48.73
2023-04-09T06:08:18.436Z,48.85
2023-04-09T06:10:46.395Z,48.82
2023-04-09T06:13:13.704Z,49.01
2023-04-09T06:15:41.480Z,48.88
2023-04-09T06:18:08.710Z,48.72
2023-04-09T06:20:35.934Z,48.94
2023-04-09T06:23:03.047Z,48.84
2023-04-09T06:25:30.234Z,48.97
2023-04-09T06:27:57.500Z,49.22
2023-04-09T06:30:25.086Z,49.11
2023-04-09T06:32:55.118Z,49.06
2023-04-09T06:35:23.336Z,48.96
2023-04-09T06:37:50.563Z,49.04
2023-04-09T06:40:18.429Z,49.20
2023-04-09T06:42:46.592Z,49.55
2023-04-09T06:45:13.717Z,49.41
2023-04-09T06:47:40.874Z,49.56
2023-04-09T06:50:08.688Z,49.56
2023-04-09T06:52:35.858Z,49.43
2023-04-09T06:55:03.033Z,48.97
2023-04-09T06:57:30.214Z,49.27
2023-04-09T06:59:57.563Z,48.83
2023-04-09T07:02:25.099Z,48.82
2023-04-09T07:04:52.638Z,48.38
2023-04-09T07:07:19.868Z,48.46
2023-04-09T07:09:47.030Z,48.25
2023-04-09T07:12:14.472Z,47.98
2023-04-09T07:14:41.622Z,47.59
2023-04-09T07:17:08.807Z,47.14
2023-04-09T07:19:35.986Z,46.98
2023-04-09T07:22:04.827Z,46.57
2023-04-09T07:24:32.003Z,45.72
2023-04-09T07:27:04.130Z,45.80
2023-04-09T07:29:31.320Z,45.21
2023-04-09T07:31:58.522Z,45.20
2023-04-09T07:34:25.682Z,44.34
2023-04-09T07:36:52.961Z,43.57
2023-04-09T07:39:21.039Z,41.89
2023-04-09T07:41:48.552Z,41.72
2023-04-09T07:44:15.659Z,42.10
2023-04-09T07:46:44.275Z,41.11
2023-04-09T07:49:11.622Z,41.50
2023-04-09T07:51:38.759Z,40.56
2023-04-09T07:54:05.929Z,40.69
2023-04-09T07:56:33.200Z,40.83
2023-04-09T07:59:00.350Z,40.61
2023-04-09T08:01:27.572Z,41.45
2023-04-09T08:03:56.597Z,40.67
2023-04-09T08:06:24.146Z,40.83
2023-04-09T08:08:51.530Z,40.75
2023-04-09T08:11:19.194Z,39.80
2023-04-09T08:13:46.306Z,39.70
2023-04-09T08:16:13.471Z,38.39
2023-04-09T08:18:40.659Z,38.04
2023-04-09T08:21:07.853Z,37.48
2023-04-09T08:23:34.988Z,37.96
2023-04-09T08:26:02.095Z,37.51
2023-04-09T08:28:29.619Z,37.39
2023-04-09T08:30:56.813Z,36.80
2023-04-09T08:33:24.031Z,36.66
2023-04-09T08:35:51.300Z,36.48
2023-04-09T08:38:19.782Z,36.22
2023-04-09T08:40:47.323Z,35.31
2023-04-09T08:43:19.321Z,35.16
2023-04-09T08:45:46.531Z,35.38
2023-04-09T08:48:14.822Z,35.94
2023-04-09T08:50:42.360Z,35.12
2023-04-09T08:53:11.633Z,32.98
2023-04-09T08:55:39.063Z,33.15
2023-04-09T08:58:07.281Z,31.92
2023-04-09T09:00:34.424Z,31.33
2023-04-09T09:03:07.035Z,31.66
2023-04-09T09:05:45.629Z,31.39
2023-04-09T09:08:23.887Z,31.05
2023-04-09T09:10:51.509Z,31.85
2023-04-09T09:13:27.197Z,31.36
2023-04-09T09:16:13.331Z,31.40
2023-04-09T09:18:46.269Z,31.24
2023-04-09T09:21:16.431Z,31.64
2023-04-09T09:23:45.260Z,29.57
2023-04-09T09:26:22.912Z,30.07
2023-04-09T09:28:51.215Z,29.92
2023-04-09T09:31:22.037Z,29.54
2023-04-09T09:33:50.129Z,30.18
2023-04-09T09:36:35.074Z,30.18
2023-04-09T09:39:03.327Z,30.31
2023-04-09T09:41:30.999Z,30.03
2023-04-09T09:43:58.460Z,30.14
2023-04-09T09:46:26.607Z,29.95
2023-04-09T09:48:54.472Z,29.80
2023-04-09T09:51:26.927Z,30.09
2023-04-09T09:53:57.215Z,27.81
2023-04-09T09:56:31.227Z,27.50
2023-04-09T09:59:06.972Z,27.38
2023-04-09T10:01:34.975Z,26.70
2023-04-09T10:04:05.800Z,26.95
2023-04-09T10:06:35.942Z,27.32
2023-04-09T10:09:06.180Z,27.67
2023-04-09T10:11:37.500Z,27.65
2023-04-09T10:14:05.168Z,27.56
2023-04-09T10:16:33.581Z,28.16
2023-04-09T10:19:02.659Z,27.58
2023-04-09T10:22:13.242Z,26.90
2023-04-09T10:24:41.155Z,26.31
2023-04-09T10:27:17.357Z,26.06
2023-04-09T10:29:48.129Z,26.73
2023-04-09T10:32:23.896Z,25.09
2023-04-09T10:34:51.356Z,25.24
2023-04-09T10:37:25.406Z,25.51
2023-04-09T10:39:54.052Z,25.28
2023-04-09T10:42:32.196Z,25.53
2023-04-09T10:45:14.540Z,24.67
2023-04-09T10:47:43.983Z,22.89
2023-04-09T10:50:22.313Z,22.63
2023-04-09T10:52:56.713Z,22.43
2023-04-09T10:55:49.180Z,22.34
2023-04-09T10:58:16.836Z,23.44
2023-04-09T11:00:49.409Z,22.09
2023-04-09T11:03:26.639Z,22.43
2023-04-09T11:06:06.299Z,22.03
2023-04-09T11:08:34.624Z,21.09
2023-04-09T11:11:02.562Z,19.09
2023-04-09T11:13:32.484Z,19.46
2023-04-09T11:16:00.404Z,19.75
2023-04-09T11:18:30.384Z,20.73
2023-04-09T11:21:00.482Z,20.42
2023-04-09T11:23:28.608Z,19.11
2023-04-09T11:25:56.162Z,18.95
2023-04-09T11:28:24.488Z,18.85
2023-04-09T11:30:52.510Z,18.01
2023-04-09T11:33:21.678Z,17.08
2023-04-09T11:35:49.406Z,17.05
2023-04-09T11:38:16.685Z,16.87
2023-04-09T11:40:45.319Z,15.67
2023-04-09T11:43:12.661Z,15.86
2023-04-09T11:45:40.136Z,15.22
2023-04-09T11:48:07.835Z,15.91
2023-04-09T11:50:36.134Z,15.35
2023-04-09T11:53:19.626Z,14.79
2023-04-09T11:55:54.333Z,15.06
2023-04-09T11:58:27.492Z,15.05
2023-04-09T12:00:57.978Z,15.47
2023-04-09T12:03:30.619Z,15.53
2023-04-09T12:06:01.251Z,14.66
2023-04-09T12:08:29.051Z,13.65
2023-04-09T12:10:56.940Z,15.31
2023-04-09T12:13:33.288Z,16.01
2023-04-09T12:16:01.764Z,15.63
2023-04-09T12:18:29.340Z,15.61
2023-04-09T12:20:56.529Z,16.23
2023-04-09T12:23:23.615Z,16.39
2023-04-09T12:25:50.750Z,16.95
2023-04-09T12:28:17.983Z,16.48
2023-04-09T12:30:45.666Z,16.50
2023-04-09T12:33:12.994Z,16.82
2023-04-09T12:35:40.226Z,17.27
2023-04-09T12:38:07.445Z,17.45
2023-04-09T12:40:36.260Z,16.62
2023-04-09T12:43:04.295Z,17.24
2023-04-09T12:45:32.125Z,17.55
2023-04-09T12:47:59.497Z,18.68
2023-04-09T12:50:26.744Z,18.45
2023-04-09T12:52:53.974Z,20.12
2023-04-09T12:55:21.184Z,19.76
2023-04-09T12:57:50.657Z,20.49
2023-04-09T13:00:17.850Z,20.36
2023-04-09T13:02:45.171Z,21.19
2023-04-09T13:05:12.628Z,21.33
2023-04-09T13:07:41.502Z,20.55
2023-04-09T13:10:10.540Z,21.56
2023-04-09T13:12:37.809Z,21.73
2023-04-09T13:15:05.701Z,21.68
2023-04-09T13:17:32.947Z,21.36
2023-04-09T13:20:00.246Z,21.74
2023-04-09T13:22:27.477Z,20.64
2023-04-09T13:24:54.614Z,20.16
2023-04-09T13:27:21.753Z,20.46
2023-04-09T13:29:48.874Z,20.36
2023-04-09T13:32:16.097Z,20.58
2023-04-09T13:34:43.629Z,21.03
2023-04-09T13:37:10.757Z,20.42
2023-04-09T13:39:38.095Z,20.48
2023-04-09T13:42:12.595Z,20.83
2023-04-09T13:44:40.717Z,20.85
2023-04-09T13:47:08.064Z,19.87
2023-04-09T13:49:35.200Z,19.94
2023-04-09T13:52:02.575Z,18.83
2023-04-09T13:54:29.834Z,18.65
2023-04-09T13:56:57.275Z,18.98
2023-04-09T13:59:24.514Z,18.09
2023-04-09T14:01:51.881Z,18.39
2023-04-09T14:04:19.195Z,18.01
2023-04-09T14:06:46.737Z,18.46
2023-04-09T14:09:14.727Z,17.93
2023-04-09T14:11:42.011Z,18.40
2023-04-09T14:14:09.190Z,18.81
2023-04-09T14:16:36.548Z,18.89
2023-04-09T14:19:03.780Z,18.32
2023-04-09T14:21:31.033Z,18.17
2023-04-09T14:23:58.225Z,18.65
2023-04-09T14:26:25.530Z,19.25
2023-04-09T14:28:53.017Z,19.03
2023-04-09T14:31:20.436Z,18.91
2023-04-09T14:33:48.825Z,18.61
2023-04-09T14:36:16.372Z,19.09
2023-04-09T14:38:43.831Z,19.13
2023-04-09T14:41:11.500Z,18.64
2023-04-09T14:43:39.033Z,19.39
2023-04-09T14:46:06.512Z,19.05
2023-04-09T14:48:33.657Z,20.00
2023-04-09T14:51:00.824Z,19.62
2023-04-09T14:53:28.005Z,19.83
2023-04-09T14:55:55.187Z,19.98
2023-04-09T14:58:22.712Z,20.17
2023-04-09T15:00:49.826Z,20.34
2023-04-09T15:03:17.154Z,20.42
2023-04-09T15:05:44.886Z,20.57
2023-04-09T15:08:16.120Z,20.87
2023-04-09T15:10:43.276Z,19.57
2023-04-09T15:13:10.537Z,20.49
2023-04-09T15:15:40.889Z,20.09
2023-04-09T15:18:08.207Z,20.30
2023-04-09T15:20:39.410Z,20.50
2023-04-09T15:23:06.723Z,21.50
2023-04-09T15:25:33.879Z,21.10
2023-04-09T15:28:02.506Z,20.67
2023-04-09T15:30:29.779Z,21.02
2023-04-09T15:32:56.977Z,20.71
2023-04-09T15:35:24.247Z,20.91
2023-04-09T15:37:52.434Z,20.71
2023-04-09T15:40:20.478Z,20.87
2023-04-09T15:42:47.888Z,21.03
2023-04-09T15:45:15.542Z,20.79
2023-04-09T15:47:44.769Z,21.28
2023-04-09T15:50:13.001Z,21.48
2023-04-09T15:52:40.224Z,22.16
2023-04-09T15:55:08.051Z,23.09
2023-04-09T15:57:35.623Z,23.43
2023-04-09T16:00:03.360Z,24.34
2023-04-09T16:02:30.633Z,24.64
2023-04-09T16:04:58.130Z,25.01
2023-04-09T16:07:25.817Z,24.45
2023-04-09T16:09:53.007Z,24.87
2023-04-09T16:12:20.247Z,25.27
2023-04-09T16:14:47.412Z,25.35
2023-04-09T16:17:14.568Z,26.11
2023-04-09T16:19:43.091Z,26.26
2023-04-09T16:22:10.973Z,26.91
2023-04-09T16:24:38.427Z,26.70
2023-04-09T16:27:05.697Z,25.12
2023-04-09T16:29:32.786Z,25.21
2023-04-09T16:32:00.197Z,23.47
2023-04-09T16:34:27.703Z,23.78
2023-04-09T16:36:55.120Z,24.01
2023-04-09T16:39:22.866Z,24.07
2023-04-09T16:41:51.880Z,24.45
2023-04-09T16:44:19.059Z,24.13
2023-04-09T16:46:46.595Z,23.71
2023-04-09T16:49:13.840Z,24.31
2023-04-09T16:51:41.253Z,24.58
2023-04-09T16:54:08.899Z,25.48
2023-04-09T16:56:36.098Z,25.75
2023-04-09T16:59:04.000Z,25.53
2023-04-09T17:01:31.382Z,26.84
2023-04-09T17:03:58.904Z,25.71
2023-04-09T17:06:26.719Z,25.19
2023-04-09T17:08:54.119Z,24.28
2023-04-09T17:11:21.396Z,24.08
2023-04-09T17:13:48.613Z,24.53
2023-04-09T17:16:16.463Z,25.81
2023-04-09T17:18:43.611Z,24.85
2023-04-09T17:21:10.877Z,24.22
2023-04-09T17:23:38.688Z,25.49
2023-04-09T17:26:06.689Z,25.39
2023-04-09T17:28:34.327Z,26.68
2023-04-09T17:31:02.263Z,27.25
2023-04-09T17:33:29.919Z,27.61
2023-04-09T17:35:57.350Z,26.93
2023-04-09T17:38:24.746Z,27.20
2023-04-09T17:40:53.668Z,27.21
2023-04-09T17:43:20.806Z,27.21
2023-04-09T17:45:47.965Z,27.88
2023-04-09T17:48:15.126Z,28.20
2023-04-09T17:50:42.399Z,28.21
2023-04-09T17:53:09.825Z,28.66
2023-04-09T17:55:37.442Z,27.98
2023-04-09T17:58:04.630Z,28.07
2023-04-09T18:00:32.280Z,28.36
2023-04-09T18:02:59.872Z,28.70
2023-04-09T18:05:27.503Z,28.94
2023-04-09T18:07:55.159Z,29.03
2023-04-09T18:10:23.378Z,29.28
2023-04-09T18:12:50.581Z,29.63
2023-04-09T18:15:20.964Z,30.20
2023-04-09T18:17:49.014Z,30.64
2023-04-09T18:20:16.220Z,30.91
2023-04-09T18:22:44.276Z,30.33
2023-04-09T18:25:11.903Z,30.84
2023-04-09T18:27:39.573Z,30.58
2023-04-09T18:30:08.117Z,30.62
2023-04-09T18:32:35.599Z,31.40
2023-04-09T18:35:02.796Z,31.45
2023-04-09T18:37:32.142Z,31.68
2023-04-09T18:40:01.153Z,31.70
2023-04-09T18:42:29.553Z,32.08
2023-04-09T18:44:56.677Z,32.26
2023-04-09T18:47:23.763Z,32.23
2023-04-09T18:49:51.941Z,32.63
2023-04-09T18:52:19.280Z,33.00
2023-04-09T18:54:46.482Z,32.49
2023-04-09T18:57:13.670Z,32.35
2023-04-09T18:59:41.076Z,33.04
2023-04-09T19:02:08.341Z,33.01
2023-04-09T19:04:35.665Z,33.01
2023-04-09T19:07:03.348Z,33.29
2023-04-09T19:09:32.205Z,33.43
2023-04-09T19:11:59.355Z,33.47
2023-04-09T19:14:26.529Z,33.29
2023-04-09T19:16:54.443Z,33.46
2023-04-09T19:19:21.854Z,34.06
2023-04-09T19:21:49.042Z,34.09
2023-04-09T19:24:16.484Z,34.39
2023-04-09T19:26:43.637Z,34.62
2023-04-09T19:29:10.806Z,34.58
2023-04-09T19:31:38.008Z,34.39
2023-04-09T19:34:05.466Z,34.35
2023-04-09T19:36:32.654Z,34.78
2023-04-09T19:38:59.919Z,34.89
2023-04-09T19:41:27.036Z,35.07
2023-04-09T19:43:54.463Z,34.76
2023-04-09T19:46:21.716Z,35.18
2023-04-09T19:48:49.320Z,34.90
2023-04-09T19:51:20.332Z,35.15
2023-04-09T19:53:47.613Z,35.62
2023-04-09T19:56:15.476Z,35.88
2023-04-09T19:58:44.383Z,35.58
2023-04-09T20:01:11.684Z,35.76
2023-04-09T20:03:39.487Z,36.01
2023-04-09T20:06:08.877Z,36.32
2023-04-09T20:08:37.267Z,36.07
2023-04-09T20:11:05.391Z,35.70
2023-04-09T20:13:32.636Z,35.98
2023-04-09T20:15:59.764Z,35.91
2023-04-09T20:18:27.323Z,36.68
2023-04-09T20:20:54.454Z,36.44
2023-04-09T20:23:21.647Z,36.22
2023-04-09T20:25:56.364Z,36.53
2023-04-09T20:28:23.837Z,36.63
2023-04-09T20:30:51.040Z,36.57
2023-04-09T20:33:18.956Z,37.10
2023-04-09T20:35:46.334Z,37.11
2023-04-09T20:38:13.809Z,37.38
2023-04-09T20:40:41.348Z,37.32
2023-04-09T20:43:08.935Z,37.34
2023-04-09T20:45:36.327Z,37.41
2023-04-09T20:48:04.242Z,37.58
2023-04-09T20:50:32.269Z,37.77
2023-04-09T20:53:01.389Z,37.96
2023-04-09T20:55:28.816Z,37.91
2023-04-09T20:57:58.362Z,38.10
2023-04-09T21:00:25.749Z,37.99
2023-04-09T21:02:53.722Z,37.71
2023-04-09T21:05:23.667Z,37.77
2023-04-09T21:07:53.186Z,38.17
2023-04-09T21:10:20.573Z,37.67
2023-04-09T21:12:47.862Z,38.04
2023-04-09T21:15:15.246Z,38.20
2023-04-09T21:17:42.428Z,38.14
2023-04-09T21:20:10.425Z,38.35
2023-04-09T21:22:37.774Z,38.11
2023-04-09T21:25:05.573Z,38.29
2023-04-09T21:27:32.727Z,38.20
2023-04-09T21:29:59.888Z,38.57
2023-04-09T21:32:27.141Z,38.11
2023-04-09T21:34:54.370Z,38.34
2023-04-09T21:37:21.538Z,38.47
2023-04-09T21:39:48.945Z,38.61
2023-04-09T21:42:16.336Z,38.66
2023-04-09T21:44:43.456Z,38.26
2023-04-09T21:47:10.705Z,38.48
2023-04-09T21:49:37.900Z,38.31
2023-04-09T21:52:05.652Z,38.90
2023-04-09T21:54:51.139Z,38.71
2023-04-09T21:57:36.906Z,39.39
2023-04-09T22:00:22.392Z,39.29
2023-04-09T22:03:08.759Z,39.31
2023-04-09T22:05:36.629Z,39.70
2023-04-09T22:08:03.891Z,39.55
2023-04-09T22:10:31.041Z,39.81
2023-04-09T22:12:58.282Z,39.44
2023-04-09T22:15:25.474Z,39.36
2023-04-09T22:17:52.770Z,39.35
2023-04-09T22:20:20.195Z,39.41
2023-04-09T22:22:47.315Z,40.07
2023-04-09T22:25:14.621Z,39.69
2023-04-09T22:27:41.966Z,40.21
2023-04-09T22:30:09.445Z,39.82
2023-04-09T22:32:36.620Z,40.13
2023-04-09T22:35:03.969Z,40.22
2023-04-09T22:37:31.154Z,40.21
2023-04-09T22:39:58.331Z,40.22
2023-04-09T22:42:25.465Z,40.36
2023-04-09T22:44:52.606Z,40.10
2023-04-09T22:47:19.899Z,40.35
2023-04-09T22:49:47.103Z,40.18
2023-04-09T22:52:14.411Z,39.93
2023-04-09T22:54:41.584Z,39.98
2023-04-09T22:57:08.726Z,40.22
2023-04-09T23:02:06.230Z,40.38
2023-04-09T23:04:33.815Z,40.89
2023-04-09T23:07:01.286Z,41.11
2023-04-09T23:09:28.737Z,40.62
2023-04-09T23:11:55.887Z,40.64
2023-04-09T23:14:23.203Z,40.84
2023-04-09T23:16:50.503Z,41.07
2023-04-09T23:19:17.641Z,41.16
2023-04-09T23:21:44.766Z,40.94
2023-04-09T23:24:12.303Z,41.44
2023-04-09T23:26:39.410Z,41.20
2023-04-09T23:29:06.485Z,40.93
2023-04-09T23:31:33.883Z,41.06
2023-04-09T23:34:01.156Z,40.98
2023-04-09T23:36:28.752Z,41.08
2023-04-09T23:38:56.053Z,41.11
2023-04-09T23:41:23.170Z,41.12
2023-04-09T23:43:51.318Z,41.02
2023-04-09T23:46:18.707Z,41.44
2023-04-09T23:48:45.907Z,41.28
2023-04-09T23:51:20.410Z,41.37
2023-04-09T23:53:47.758Z,41.68
2023-04-09T23:56:15.147Z,41.83
2023-04-09T23:58:42.844Z,41.77
